sensor_id;sensor_type;location;lat;lon;timestamp;P1;durP1;ratioP1;P2;durP2;ratioP2
7211;SDS011;3647;48.792;9.802;2023-04-29T06:08:03;2.87;;;2.67;;
7211;SDS011;3647;48.792;9.802;2023-04-29T06:10:31;3.20;;;2.53;;
7211;SDS011;3647;48.792;9.802;2023-04-29T06:12:58;2.90;;;2.70;;
7211;SDS011;3647;48.792;9.802;2023-04-29T06:15:25;2.67;;;2.13;;
7211;SDS011;3647;48.792;9.802;2023-04-29T06:17:52;3.50;;;3.20;;
7211;SDS011;3647;48.792;9.802;2023-04-29T06:20:19;3.03;;;2.83;;
7211;SDS011;3647;48.792;9.802;2023-04-29T06:22:46;3.10;;;2.80;;
7211;SDS011;3647;48.792;9.802;2023-04-29T06:25:14;4.00;;;2.50;;
7211;SDS011;3647;48.792;9.802;2023-04-29T06:27:41;2.53;;;2.33;;
7211;SDS011;3647;48.792;9.802;2023-04-29T06:30:08;3.17;;;2.50;;
7211;SDS011;3647;48.792;9.802;2023-04-29T06:32:35;2.80;;;2.60;;
7211;SDS011;3647;48.792;9.802;2023-04-29T06:35:03;2.87;;;2.60;;
7211;SDS011;3647;48.792;9.802;2023-04-29T06:37:30;3.33;;;2.70;;
7211;SDS011;3647;48.792;9.802;2023-04-29T06:40:00;3.30;;;3.00;;
7211;SDS011;3647;48.792;9.802;2023-04-29T06:42:28;3.37;;;3.07;;
7211;SDS011;3647;48.792;9.802;2023-04-29T06:44:55;3.40;;;3.13;;
7211;SDS011;3647;48.792;9.802;2023-04-29T06:47:22;4.97;;;2.93;;
7211;SDS011;3647;48.792;9.802;2023-04-29T06:49:49;3.73;;;3.30;;
7211;SDS011;3647;48.792;9.802;2023-04-29T06:52:16;3.37;;;3.07;;
7211;SDS011;3647;48.792;9.802;2023-04-29T06:54:44;3.13;;;2.90;;
7211;SDS011;3647;48.792;9.802;2023-04-29T06:57:10;5.70;;;3.07;;
7211;SDS011;3647;48.792;9.802;2023-04-29T06:59:39;4.27;;;3.30;;
7211;SDS011;3647;48.792;9.802;2023-04-29T07:02:05;3.40;;;3.13;;
7211;SDS011;3647;48.792;9.802;2023-04-29T07:04:32;3.50;;;3.20;;
7211;SDS011;3647;48.792;9.802;2023-04-29T07:07:01;3.90;;;3.60;;
7211;SDS011;3647;48.792;9.802;2023-04-29T07:09:28;3.70;;;3.33;;
7211;SDS011;3647;48.792;9.802;2023-04-29T07:11:55;4.37;;;3.93;;
7211;SDS011;3647;48.792;9.802;2023-04-29T07:14:22;3.77;;;3.40;;
7211;SDS011;3647;48.792;9.802;2023-04-29T07:16:53;3.80;;;3.40;;
7211;SDS011;3647;48.792;9.802;2023-04-29T07:19:20;4.27;;;3.87;;
7211;SDS011;3647;48.792;9.802;2023-04-29T07:21:47;4.03;;;3.67;;
7211;SDS011;3647;48.792;9.802;2023-04-29T07:24:14;4.50;;;4.10;;
7211;SDS011;3647;48.792;9.802;2023-04-29T07:26:41;4.83;;;4.23;;
7211;SDS011;3647;48.792;9.802;2023-04-29T07:29:08;4.20;;;3.80;;
7211;SDS011;3647;48.792;9.802;2023-04-29T07:31:35;4.43;;;3.87;;
7211;SDS011;3647;48.792;9.802;2023-04-29T07:34:04;4.85;;;4.35;;
7211;SDS011;3647;48.792;9.802;2023-04-29T07:36:31;5.22;;;4.72;;
7211;SDS011;3647;48.792;9.802;2023-04-29T07:38:58;4.85;;;4.15;;
7211;SDS011;3647;48.792;9.802;2023-04-29T07:41:25;4.68;;;4.05;;
7211;SDS011;3647;48.792;9.802;2023-04-29T07:43:52;4.07;;;3.67;;
7211;SDS011;3647;48.792;9.802;2023-04-29T07:46:18;3.70;;;3.40;;
7211;SDS011;3647;48.792;9.802;2023-04-29T07:48:45;3.75;;;3.28;;
7211;SDS011;3647;48.792;9.802;2023-04-29T07:51:13;4.03;;;3.63;;
7211;SDS011;3647;48.792;9.802;2023-04-29T07:53:40;3.45;;;3.15;;
7211;SDS011;3647;48.792;9.802;2023-04-29T07:56:07;3.58;;;3.28;;
7211;SDS011;3647;48.792;9.802;2023-04-29T07:58:34;3.30;;;3.00;;
7211;SDS011;3647;48.792;9.802;2023-04-29T08:01:05;3.08;;;2.60;;
7211;SDS011;3647;48.792;9.802;2023-04-29T08:03:34;2.92;;;2.72;;
7211;SDS011;3647;48.792;9.802;2023-04-29T08:06:04;3.00;;;2.80;;
7211;SDS011;3647;48.792;9.802;2023-04-29T08:08:33;2.83;;;2.60;;
7211;SDS011;3647;48.792;9.802;2023-04-29T08:10:59;3.00;;;2.70;;
7211;SDS011;3647;48.792;9.802;2023-04-29T08:13:26;3.65;;;2.95;;
7211;SDS011;3647;48.792;9.802;2023-04-29T08:15:53;3.53;;;3.00;;
7211;SDS011;3647;48.792;9.802;2023-04-29T08:18:20;2.67;;;2.35;;
7211;SDS011;3647;48.792;9.802;2023-04-29T08:20:47;2.50;;;2.30;;
7211;SDS011;3647;48.792;9.802;2023-04-29T08:23:15;2.67;;;2.45;;
7211;SDS011;3647;48.792;9.802;2023-04-29T08:25:43;2.75;;;2.55;;
7211;SDS011;3647;48.792;9.802;2023-04-29T08:28:10;2.85;;;2.55;;
7211;SDS011;3647;48.792;9.802;2023-04-29T08:30:38;4.45;;;2.60;;
7211;SDS011;3647;48.792;9.802;2023-04-29T08:33:06;3.40;;;3.10;;
7211;SDS011;3647;48.792;9.802;2023-04-29T08:35:33;3.10;;;2.80;;
7211;SDS011;3647;48.792;9.802;2023-04-29T08:38:02;2.55;;;2.35;;
7211;SDS011;3647;48.792;9.802;2023-04-29T08:40:32;3.10;;;2.60;;
7211;SDS011;3647;48.792;9.802;2023-04-29T08:43:01;2.63;;;2.42;;
7211;SDS011;3647;48.792;9.802;2023-04-29T08:45:29;2.92;;;2.47;;
7211;SDS011;3647;48.792;9.802;2023-04-29T08:47:58;2.42;;;2.20;;
7211;SDS011;3647;48.792;9.802;2023-04-29T08:50:27;3.78;;;2.15;;
7211;SDS011;3647;48.792;9.802;2023-04-29T08:52:55;2.25;;;2.05;;
7211;SDS011;3647;48.792;9.802;2023-04-29T08:55:22;2.00;;;1.85;;
7211;SDS011;3647;48.792;9.802;2023-04-29T08:57:50;1.90;;;1.80;;
7211;SDS011;3647;48.792;9.802;2023-04-29T09:00:21;2.30;;;2.10;;
7211;SDS011;3647;48.792;9.802;2023-04-29T09:02:50;1.90;;;1.80;;
7211;SDS011;3647;48.792;9.802;2023-04-29T09:05:18;1.88;;;1.70;;
7211;SDS011;3647;48.792;9.802;2023-04-29T09:07:45;1.97;;;1.87;;
7211;SDS011;3647;48.792;9.802;2023-04-29T09:10:13;1.88;;;1.77;;
7211;SDS011;3647;48.792;9.802;2023-04-29T09:12:40;2.17;;;2.07;;
7211;SDS011;3647;48.792;9.802;2023-04-29T09:15:08;2.00;;;1.80;;
7211;SDS011;3647;48.792;9.802;2023-04-29T09:17:41;1.57;;;1.47;;
7211;SDS011;3647;48.792;9.802;2023-04-29T09:20:25;1.67;;;1.47;;
7211;SDS011;3647;48.792;9.802;2023-04-29T09:22:53;1.70;;;1.60;;
7211;SDS011;3647;48.792;9.802;2023-04-29T09:25:21;1.90;;;1.80;;
7211;SDS011;3647;48.792;9.802;2023-04-29T09:27:48;2.38;;;1.88;;
7211;SDS011;3647;48.792;9.802;2023-04-29T09:30:15;2.08;;;1.88;;
7211;SDS011;3647;48.792;9.802;2023-04-29T09:32:46;1.80;;;1.70;;
7211;SDS011;3647;48.792;9.802;2023-04-29T09:35:30;1.92;;;1.83;;
7211;SDS011;3647;48.792;9.802;2023-04-29T09:38:06;2.17;;;2.00;;
7211;SDS011;3647;48.792;9.802;2023-04-29T09:40:35;2.42;;;1.85;;
7211;SDS011;3647;48.792;9.802;2023-04-29T09:43:02;2.00;;;1.70;;
7211;SDS011;3647;48.792;9.802;2023-04-29T09:45:32;2.38;;;2.17;;
7211;SDS011;3647;48.792;9.802;2023-04-29T09:48:02;1.83;;;1.73;;
7211;SDS011;3647;48.792;9.802;2023-04-29T09:50:30;1.98;;;1.88;;
7211;SDS011;3647;48.792;9.802;2023-04-29T09:52:57;2.65;;;1.90;;
7211;SDS011;3647;48.792;9.802;2023-04-29T09:55:25;1.67;;;1.58;;
7211;SDS011;3647;48.792;9.802;2023-04-29T09:57:52;2.28;;;2.08;;
7211;SDS011;3647;48.792;9.802;2023-04-29T10:00:19;1.92;;;1.83;;
7211;SDS011;3647;48.792;9.802;2023-04-29T10:02:46;1.95;;;1.85;;
7211;SDS011;3647;48.792;9.802;2023-04-29T10:05:15;2.60;;;1.88;;
7211;SDS011;3647;48.792;9.802;2023-04-29T10:07:42;1.70;;;1.60;;
7211;SDS011;3647;48.792;9.802;2023-04-29T10:10:14;1.85;;;1.75;;
7211;SDS011;3647;48.792;9.802;2023-04-29T10:12:41;1.52;;;1.42;;
7211;SDS011;3647;48.792;9.802;2023-04-29T10:15:16;1.95;;;1.85;;
7211;SDS011;3647;48.792;9.802;2023-04-29T10:17:51;3.03;;;1.85;;
7211;SDS011;3647;48.792;9.802;2023-04-29T10:20:24;1.88;;;1.77;;
7211;SDS011;3647;48.792;9.802;2023-04-29T10:22:52;2.28;;;2.08;;
7211;SDS011;3647;48.792;9.802;2023-04-29T10:25:20;1.90;;;1.65;;
7211;SDS011;3647;48.792;9.802;2023-04-29T10:27:49;2.45;;;2.15;;
7211;SDS011;3647;48.792;9.802;2023-04-29T10:30:17;1.95;;;1.85;;
7211;SDS011;3647;48.792;9.802;2023-04-29T10:32:46;2.00;;;1.80;;
7211;SDS011;3647;48.792;9.802;2023-04-29T10:35:14;1.98;;;1.88;;
7211;SDS011;3647;48.792;9.802;2023-04-29T10:37:44;2.22;;;2.03;;
7211;SDS011;3647;48.792;9.802;2023-04-29T10:40:13;3.58;;;1.85;;
7211;SDS011;3647;48.792;9.802;2023-04-29T10:42:43;1.90;;;1.80;;
7211;SDS011;3647;48.792;9.802;2023-04-29T10:51:02;2.28;;;1.80;;
7211;SDS011;3647;48.792;9.802;2023-04-29T10:53:31;1.65;;;1.55;;
7211;SDS011;3647;48.792;9.802;2023-04-29T10:56:03;1.65;;;1.55;;
7211;SDS011;3647;48.792;9.802;2023-04-29T10:58:42;2.33;;;2.13;;
7211;SDS011;3647;48.792;9.802;2023-04-29T11:01:10;2.58;;;2.15;;
7211;SDS011;3647;48.792;9.802;2023-04-29T11:03:48;2.08;;;1.88;;
7211;SDS011;3647;48.792;9.802;2023-04-29T11:06:26;1.95;;;1.70;;
7211;SDS011;3647;48.792;9.802;2023-04-29T11:09:08;1.92;;;1.80;;
7211;SDS011;3647;48.792;9.802;2023-04-29T11:14:34;2.38;;;2.17;;
7211;SDS011;3647;48.792;9.802;2023-04-29T11:17:06;2.00;;;1.90;;
7211;SDS011;3647;48.792;9.802;2023-04-29T11:19:35;1.90;;;1.80;;
7211;SDS011;3647;48.792;9.802;2023-04-29T11:22:10;1.88;;;1.77;;
7211;SDS011;3647;48.792;9.802;2023-04-29T11:24:50;2.40;;;2.20;;
7211;SDS011;3647;48.792;9.802;2023-04-29T11:27:19;1.92;;;1.65;;
7211;SDS011;3647;48.792;9.802;2023-04-29T11:29:49;2.73;;;2.00;;
7211;SDS011;3647;48.792;9.802;2023-04-29T11:32:19;2.13;;;1.92;;
7211;SDS011;3647;48.792;9.802;2023-04-29T11:34:47;1.75;;;1.65;;
7211;SDS011;3647;48.792;9.802;2023-04-29T11:37:18;1.83;;;1.73;;
7211;SDS011;3647;48.792;9.802;2023-04-29T11:39:46;2.42;;;1.88;;
7211;SDS011;3647;48.792;9.802;2023-04-29T11:42:19;1.70;;;1.60;;
7211;SDS011;3647;48.792;9.802;2023-04-29T11:44:46;1.45;;;1.35;;
7211;SDS011;3647;48.792;9.802;2023-04-29T11:47:17;1.83;;;1.65;;
7211;SDS011;3647;48.792;9.802;2023-04-29T11:49:45;1.80;;;1.70;;
7211;SDS011;3647;48.792;9.802;2023-04-29T11:52:12;1.73;;;1.42;;
7211;SDS011;3647;48.792;9.802;2023-04-29T11:54:39;2.15;;;2.05;;
7211;SDS011;3647;48.792;9.802;2023-04-29T11:57:08;1.90;;;1.80;;
7211;SDS011;3647;48.792;9.802;2023-04-29T11:59:37;2.03;;;1.80;;
7211;SDS011;3647;48.792;9.802;2023-04-29T12:02:07;1.48;;;1.38;;
7211;SDS011;3647;48.792;9.802;2023-04-29T12:04:43;1.73;;;1.63;;
7211;SDS011;3647;48.792;9.802;2023-04-29T12:07:10;2.00;;;1.40;;
7211;SDS011;3647;48.792;9.802;2023-04-29T12:09:42;1.60;;;1.50;;
7211;SDS011;3647;48.792;9.802;2023-04-29T12:12:10;1.70;;;1.60;;
7211;SDS011;3647;48.792;9.802;2023-04-29T12:14:40;3.85;;;1.50;;
7211;SDS011;3647;48.792;9.802;2023-04-29T12:17:07;1.60;;;1.50;;
7211;SDS011;3647;48.792;9.802;2023-04-29T12:19:35;1.58;;;1.48;;
7211;SDS011;3647;48.792;9.802;2023-04-29T12:22:05;1.92;;;1.80;;
7211;SDS011;3647;48.792;9.802;2023-04-29T12:24:33;4.07;;;1.90;;
7211;SDS011;3647;48.792;9.802;2023-04-29T12:27:01;1.98;;;1.88;;
7211;SDS011;3647;48.792;9.802;2023-04-29T12:29:27;2.67;;;2.00;;
7211;SDS011;3647;48.792;9.802;2023-04-29T12:31:56;1.88;;;1.77;;
7211;SDS011;3647;48.792;9.802;2023-04-29T12:34:26;1.98;;;1.88;;
7211;SDS011;3647;48.792;9.802;2023-04-29T12:36:54;3.28;;;1.90;;
7211;SDS011;3647;48.792;9.802;2023-04-29T12:39:22;2.38;;;2.00;;
7211;SDS011;3647;48.792;9.802;2023-04-29T12:41:53;2.58;;;2.13;;
7211;SDS011;3647;48.792;9.802;2023-04-29T12:44:22;2.85;;;1.90;;
7211;SDS011;3647;48.792;9.802;2023-04-29T12:46:48;2.08;;;1.88;;
7211;SDS011;3647;48.792;9.802;2023-04-29T12:49:17;2.00;;;1.83;;
7211;SDS011;3647;48.792;9.802;2023-04-29T12:51:45;1.88;;;1.77;;
7211;SDS011;3647;48.792;9.802;2023-04-29T12:54:12;1.95;;;1.83;;
7211;SDS011;3647;48.792;9.802;2023-04-29T12:56:39;1.50;;;1.40;;
7211;SDS011;3647;48.792;9.802;2023-04-29T12:59:06;1.92;;;1.73;;
7211;SDS011;3647;48.792;9.802;2023-04-29T13:01:34;1.80;;;1.70;;
7211;SDS011;3647;48.792;9.802;2023-04-29T13:04:00;1.65;;;1.55;;
7211;SDS011;3647;48.792;9.802;2023-04-29T13:06:30;2.08;;;1.90;;
7211;SDS011;3647;48.792;9.802;2023-04-29T13:08:57;1.70;;;1.60;;
7211;SDS011;3647;48.792;9.802;2023-04-29T13:11:24;1.70;;;1.60;;
7211;SDS011;3647;48.792;9.802;2023-04-29T13:13:51;1.75;;;1.65;;
7211;SDS011;3647;48.792;9.802;2023-04-29T13:16:18;2.08;;;1.98;;
7211;SDS011;3647;48.792;9.802;2023-04-29T13:18:45;1.50;;;1.40;;
7211;SDS011;3647;48.792;9.802;2023-04-29T13:21:12;1.70;;;1.60;;
7211;SDS011;3647;48.792;9.802;2023-04-29T13:23:40;1.80;;;1.67;;
7211;SDS011;3647;48.792;9.802;2023-04-29T13:26:07;2.03;;;1.88;;
7211;SDS011;3647;48.792;9.802;2023-04-29T13:28:34;1.63;;;1.52;;
7211;SDS011;3647;48.792;9.802;2023-04-29T13:31:00;1.75;;;1.65;;
7211;SDS011;3647;48.792;9.802;2023-04-29T13:33:27;2.05;;;1.95;;
7211;SDS011;3647;48.792;9.802;2023-04-29T13:35:54;2.63;;;2.33;;
7211;SDS011;3647;48.792;9.802;2023-04-29T13:38:21;1.70;;;1.60;;
7211;SDS011;3647;48.792;9.802;2023-04-29T13:40:49;1.88;;;1.75;;
7211;SDS011;3647;48.792;9.802;2023-04-29T13:43:16;2.75;;;1.83;;
7211;SDS011;3647;48.792;9.802;2023-04-29T13:45:43;2.30;;;2.10;;
7211;SDS011;3647;48.792;9.802;2023-04-29T13:48:10;2.00;;;1.85;;
7211;SDS011;3647;48.792;9.802;2023-04-29T13:50:37;1.80;;;1.70;;
7211;SDS011;3647;48.792;9.802;2023-04-29T13:53:05;1.70;;;1.60;;
7211;SDS011;3647;48.792;9.802;2023-04-29T13:55:32;1.80;;;1.70;;
7211;SDS011;3647;48.792;9.802;2023-04-29T13:58:01;2.35;;;2.15;;
7211;SDS011;3647;48.792;9.802;2023-04-29T14:00:28;1.88;;;1.77;;
7211;SDS011;3647;48.792;9.802;2023-04-29T14:02:54;2.42;;;1.90;;
7211;SDS011;3647;48.792;9.802;2023-04-29T14:05:21;1.95;;;1.77;;
7211;SDS011;3647;48.792;9.802;2023-04-29T14:07:48;2.78;;;1.90;;
7211;SDS011;3647;48.792;9.802;2023-04-29T14:10:15;2.20;;;2.03;;
7211;SDS011;3647;48.792;9.802;2023-04-29T14:12:42;1.80;;;1.70;;
7211;SDS011;3647;48.792;9.802;2023-04-29T14:15:11;2.15;;;2.00;;
7211;SDS011;3647;48.792;9.802;2023-04-29T14:17:38;1.83;;;1.73;;
7211;SDS011;3647;48.792;9.802;2023-04-29T14:20:06;2.00;;;1.90;;
7211;SDS011;3647;48.792;9.802;2023-04-29T14:22:34;3.58;;;2.00;;
7211;SDS011;3647;48.792;9.802;2023-04-29T14:25:00;2.45;;;2.22;;
7211;SDS011;3647;48.792;9.802;2023-04-29T14:27:27;2.42;;;2.13;;
7211;SDS011;3647;48.792;9.802;2023-04-29T14:29:54;2.78;;;2.58;;
7211;SDS011;3647;48.792;9.802;2023-04-29T14:32:22;3.22;;;2.60;;
7211;SDS011;3647;48.792;9.802;2023-04-29T14:34:49;3.30;;;2.70;;
7211;SDS011;3647;48.792;9.802;2023-04-29T14:37:16;2.85;;;2.65;;
7211;SDS011;3647;48.792;9.802;2023-04-29T14:39:43;3.45;;;3.10;;
7211;SDS011;3647;48.792;9.802;2023-04-29T14:42:09;3.00;;;2.70;;
7211;SDS011;3647;48.792;9.802;2023-04-29T14:44:36;3.88;;;3.50;;
7211;SDS011;3647;48.792;9.802;2023-04-29T14:47:03;3.63;;;3.05;;
7211;SDS011;3647;48.792;9.802;2023-04-29T14:49:34;4.30;;;3.47;;
7211;SDS011;3647;48.792;9.802;2023-04-29T14:52:01;4.28;;;3.38;;
7211;SDS011;3647;48.792;9.802;2023-04-29T14:54:28;4.03;;;3.40;;
7211;SDS011;3647;48.792;9.802;2023-04-29T14:56:55;3.70;;;3.30;;
7211;SDS011;3647;48.792;9.802;2023-04-29T14:59:22;3.17;;;2.88;;
7211;SDS011;3647;48.792;9.802;2023-04-29T15:01:49;3.67;;;3.33;;
7211;SDS011;3647;48.792;9.802;2023-04-29T15:04:15;3.88;;;3.22;;
7211;SDS011;3647;48.792;9.802;2023-04-29T15:06:44;3.15;;;2.90;;
7211;SDS011;3647;48.792;9.802;2023-04-29T15:09:11;4.32;;;3.42;;
7211;SDS011;3647;48.792;9.802;2023-04-29T15:11:38;2.63;;;2.42;;
7211;SDS011;3647;48.792;9.802;2023-04-29T15:14:05;3.55;;;3.25;;
7211;SDS011;3647;48.792;9.802;2023-04-29T15:16:32;3.13;;;2.78;;
7211;SDS011;3647;48.792;9.802;2023-04-29T15:19:00;3.72;;;2.97;;
7211;SDS011;3647;48.792;9.802;2023-04-29T15:21:27;4.25;;;3.10;;
7211;SDS011;3647;48.792;9.802;2023-04-29T15:23:55;4.15;;;3.10;;
7211;SDS011;3647;48.792;9.802;2023-04-29T15:26:22;2.70;;;2.50;;
7211;SDS011;3647;48.792;9.802;2023-04-29T15:28:49;4.20;;;2.72;;
7211;SDS011;3647;48.792;9.802;2023-04-29T15:31:16;3.63;;;3.20;;
7211;SDS011;3647;48.792;9.802;2023-04-29T15:33:42;3.20;;;2.80;;
7211;SDS011;3647;48.792;9.802;2023-04-29T15:36:09;5.57;;;3.50;;
7211;SDS011;3647;48.792;9.802;2023-04-29T15:38:37;5.50;;;3.55;;
7211;SDS011;3647;48.792;9.802;2023-04-29T15:41:05;3.65;;;3.35;;
7211;SDS011;3647;48.792;9.802;2023-04-29T15:43:32;4.57;;;3.40;;
7211;SDS011;3647;48.792;9.802;2023-04-29T15:45:59;3.10;;;2.90;;
7211;SDS011;3647;48.792;9.802;2023-04-29T15:48:26;3.90;;;3.50;;
7211;SDS011;3647;48.792;9.802;2023-04-29T15:50:53;3.80;;;3.28;;
7211;SDS011;3647;48.792;9.802;2023-04-29T15:53:21;4.68;;;3.03;;
7211;SDS011;3647;48.792;9.802;2023-04-29T15:55:47;4.13;;;3.20;;
7211;SDS011;3647;48.792;9.802;2023-04-29T15:58:15;3.78;;;3.38;;
7211;SDS011;3647;48.792;9.802;2023-04-29T16:00:42;3.42;;;2.55;;
7211;SDS011;3647;48.792;9.802;2023-04-29T16:03:09;3.38;;;2.88;;
7211;SDS011;3647;48.792;9.802;2023-04-29T16:05:36;4.32;;;3.70;;
7211;SDS011;3647;48.792;9.802;2023-04-29T16:08:03;3.80;;;2.97;;
7211;SDS011;3647;48.792;9.802;2023-04-29T16:10:30;3.78;;;3.28;;
7211;SDS011;3647;48.792;9.802;2023-04-29T16:12:57;3.72;;;2.72;;
7211;SDS011;3647;48.792;9.802;2023-04-29T16:15:26;3.30;;;2.83;;
7211;SDS011;3647;48.792;9.802;2023-04-29T16:17:53;3.60;;;2.83;;
7211;SDS011;3647;48.792;9.802;2023-04-29T16:20:20;3.92;;;3.40;;
7211;SDS011;3647;48.792;9.802;2023-04-29T16:22:47;3.47;;;3.17;;
7211;SDS011;3647;48.792;9.802;2023-04-29T16:25:14;4.75;;;3.80;;
7211;SDS011;3647;48.792;9.802;2023-04-29T16:27:41;4.35;;;3.53;;
7211;SDS011;3647;48.792;9.802;2023-04-29T16:30:08;5.30;;;3.88;;
7211;SDS011;3647;48.792;9.802;2023-04-29T16:32:36;4.38;;;3.45;;
7211;SDS011;3647;48.792;9.802;2023-04-29T16:35:05;6.30;;;4.37;;
7211;SDS011;3647;48.792;9.802;2023-04-29T16:37:33;4.33;;;3.93;;
7211;SDS011;3647;48.792;9.802;2023-04-29T16:40:00;4.50;;;3.78;;
7211;SDS011;3647;48.792;9.802;2023-04-29T16:42:26;5.53;;;3.47;;
7211;SDS011;3647;48.792;9.802;2023-04-29T16:44:53;4.85;;;3.53;;
7211;SDS011;3647;48.792;9.802;2023-04-29T16:47:20;4.50;;;3.57;;
7211;SDS011;3647;48.792;9.802;2023-04-29T16:49:50;4.72;;;3.30;;
7211;SDS011;3647;48.792;9.802;2023-04-29T16:52:17;4.45;;;3.33;;
7211;SDS011;3647;48.792;9.802;2023-04-29T16:54:44;3.87;;;3.47;;
7211;SDS011;3647;48.792;9.802;2023-04-29T16:57:11;5.75;;;3.65;;
7211;SDS011;3647;48.792;9.802;2023-04-29T16:59:38;4.85;;;3.97;;
7211;SDS011;3647;48.792;9.802;2023-04-29T17:02:05;3.75;;;3.30;;
7211;SDS011;3647;48.792;9.802;2023-04-29T17:04:32;5.35;;;3.75;;
7211;SDS011;3647;48.792;9.802;2023-04-29T17:07:00;6.75;;;4.82;;
7211;SDS011;3647;48.792;9.802;2023-04-29T17:09:27;4.05;;;3.65;;
7211;SDS011;3647;48.792;9.802;2023-04-29T17:11:55;5.28;;;3.78;;
7211;SDS011;3647;48.792;9.802;2023-04-29T17:14:22;5.18;;;3.95;;
7211;SDS011;3647;48.792;9.802;2023-04-29T17:16:49;4.75;;;4.03;;
7211;SDS011;3647;48.792;9.802;2023-04-29T17:19:16;3.92;;;3.20;;
7211;SDS011;3647;48.792;9.802;2023-04-29T17:21:43;3.60;;;2.87;;
7211;SDS011;3647;48.792;9.802;2023-04-29T17:24:11;4.00;;;3.00;;
7211;SDS011;3647;48.792;9.802;2023-04-29T17:26:38;4.20;;;3.65;;
7211;SDS011;3647;48.792;9.802;2023-04-29T17:29:05;4.87;;;3.17;;
7211;SDS011;3647;48.792;9.802;2023-04-29T17:31:32;4.32;;;3.20;;
7211;SDS011;3647;48.792;9.802;2023-04-29T17:34:09;4.95;;;3.15;;
7211;SDS011;3647;48.792;9.802;2023-04-29T17:36:43;3.63;;;2.77;;
7211;SDS011;3647;48.792;9.802;2023-04-29T17:39:12;4.07;;;3.50;;
7211;SDS011;3647;48.792;9.802;2023-04-29T17:41:39;6.50;;;3.67;;
7211;SDS011;3647;48.792;9.802;2023-04-29T17:44:06;2.92;;;2.65;;
7211;SDS011;3647;48.792;9.802;2023-04-29T17:46:33;3.23;;;2.90;;
7211;SDS011;3647;48.792;9.802;2023-04-29T17:49:00;3.47;;;3.17;;
7211;SDS011;3647;48.792;9.802;2023-04-29T17:51:27;4.07;;;3.00;;
7211;SDS011;3647;48.792;9.802;2023-04-29T17:53:56;4.35;;;2.88;;
7211;SDS011;3647;48.792;9.802;2023-04-29T17:56:25;2.90;;;2.50;;
7211;SDS011;3647;48.792;9.802;2023-04-29T17:58:52;3.20;;;2.73;;
7211;SDS011;3647;48.792;9.802;2023-04-29T18:01:19;3.50;;;3.00;;
7211;SDS011;3647;48.792;9.802;2023-04-29T18:03:46;2.90;;;2.60;;
7211;SDS011;3647;48.792;9.802;2023-04-29T18:06:14;3.07;;;2.70;;
7211;SDS011;3647;48.792;9.802;2023-04-29T18:08:41;4.10;;;3.73;;
7211;SDS011;3647;48.792;9.802;2023-04-29T18:11:08;3.30;;;3.00;;
7211;SDS011;3647;48.792;9.802;2023-04-29T18:13:38;4.10;;;3.20;;
7211;SDS011;3647;48.792;9.802;2023-04-29T18:16:05;4.07;;;2.83;;
7211;SDS011;3647;48.792;9.802;2023-04-29T18:18:32;3.03;;;2.60;;
7211;SDS011;3647;48.792;9.802;2023-04-29T18:21:00;3.67;;;3.03;;
7211;SDS011;3647;48.792;9.802;2023-04-29T18:23:27;3.33;;;3.03;;
7211;SDS011;3647;48.792;9.802;2023-04-29T18:25:53;3.45;;;2.90;;
7211;SDS011;3647;48.792;9.802;2023-04-29T18:28:20;3.10;;;2.80;;
7211;SDS011;3647;48.792;9.802;2023-04-29T18:30:49;3.23;;;2.67;;
7211;SDS011;3647;48.792;9.802;2023-04-29T18:33:16;3.53;;;2.83;;
7211;SDS011;3647;48.792;9.802;2023-04-29T18:35:43;4.03;;;3.00;;
7211;SDS011;3647;48.792;9.802;2023-04-29T18:38:10;2.83;;;2.50;;
7211;SDS011;3647;48.792;9.802;2023-04-29T18:40:40;3.58;;;2.65;;
7211;SDS011;3647;48.792;9.802;2023-04-29T18:43:07;3.97;;;3.00;;
7211;SDS011;3647;48.792;9.802;2023-04-29T18:45:33;3.20;;;2.90;;
7211;SDS011;3647;48.792;9.802;2023-04-29T18:48:02;3.37;;;2.73;;
7211;SDS011;3647;48.792;9.802;2023-04-29T18:50:30;3.57;;;3.17;;
7211;SDS011;3647;48.792;9.802;2023-04-29T18:52:57;3.40;;;2.90;;
7211;SDS011;3647;48.792;9.802;2023-04-29T18:55:24;5.33;;;3.23;;
7211;SDS011;3647;48.792;9.802;2023-04-29T18:57:51;3.78;;;3.05;;
7211;SDS011;3647;48.792;9.802;2023-04-29T19:00:18;3.30;;;3.00;;
7211;SDS011;3647;48.792;9.802;2023-04-29T19:02:45;3.25;;;2.78;;
7211;SDS011;3647;48.792;9.802;2023-04-29T19:05:14;3.23;;;2.93;;
7211;SDS011;3647;48.792;9.802;2023-04-29T19:07:40;3.30;;;3.00;;
7211;SDS011;3647;48.792;9.802;2023-04-29T19:10:08;4.80;;;2.83;;
7211;SDS011;3647;48.792;9.802;2023-04-29T19:12:35;3.20;;;2.80;;
7211;SDS011;3647;48.792;9.802;2023-04-29T19:15:02;4.13;;;3.30;;
7211;SDS011;3647;48.792;9.802;2023-04-29T19:17:30;4.23;;;3.80;;
7211;SDS011;3647;48.792;9.802;2023-04-29T19:19:58;3.40;;;3.10;;
7211;SDS011;3647;48.792;9.802;2023-04-29T19:22:26;4.65;;;3.38;;
7211;SDS011;3647;48.792;9.802;2023-04-29T19:24:53;4.20;;;3.50;;
7211;SDS011;3647;48.792;9.802;2023-04-29T19:27:20;5.00;;;3.30;;
7211;SDS011;3647;48.792;9.802;2023-04-29T19:29:47;4.23;;;3.43;;
7211;SDS011;3647;48.792;9.802;2023-04-29T19:32:15;4.87;;;3.73;;
7211;SDS011;3647;48.792;9.802;2023-04-29T19:34:43;4.33;;;3.57;;
7211;SDS011;3647;48.792;9.802;2023-04-29T19:37:10;5.43;;;4.57;;
7211;SDS011;3647;48.792;9.802;2023-04-29T19:39:39;5.53;;;4.10;;
7211;SDS011;3647;48.792;9.802;2023-04-29T19:42:06;5.73;;;4.23;;
7211;SDS011;3647;48.792;9.802;2023-04-29T19:44:33;4.37;;;3.97;;
7211;SDS011;3647;48.792;9.802;2023-04-29T19:47:00;5.33;;;3.53;;
7211;SDS011;3647;48.792;9.802;2023-04-29T19:49:27;4.23;;;3.83;;
7211;SDS011;3647;48.792;9.802;2023-04-29T19:51:54;5.83;;;4.07;;
7211;SDS011;3647;48.792;9.802;2023-04-29T19:54:21;5.10;;;3.73;;
7211;SDS011;3647;48.792;9.802;2023-04-29T19:56:49;4.20;;;3.77;;
7211;SDS011;3647;48.792;9.802;2023-04-29T19:59:16;3.87;;;3.37;;
7211;SDS011;3647;48.792;9.802;2023-04-29T20:01:43;4.63;;;3.30;;
7211;SDS011;3647;48.792;9.802;2023-04-29T20:04:09;4.83;;;3.57;;
7211;SDS011;3647;48.792;9.802;2023-04-29T20:06:36;4.73;;;3.90;;
7211;SDS011;3647;48.792;9.802;2023-04-29T20:09:03;4.60;;;4.03;;
7211;SDS011;3647;48.792;9.802;2023-04-29T20:11:30;4.27;;;3.87;;
7211;SDS011;3647;48.792;9.802;2023-04-29T20:13:58;5.07;;;4.17;;
7211;SDS011;3647;48.792;9.802;2023-04-29T20:16:25;5.40;;;3.80;;
7211;SDS011;3647;48.792;9.802;2023-04-29T20:18:54;4.73;;;4.00;;
7211;SDS011;3647;48.792;9.802;2023-04-29T20:21:21;4.13;;;3.70;;
7211;SDS011;3647;48.792;9.802;2023-04-29T20:23:48;4.50;;;3.97;;
7211;SDS011;3647;48.792;9.802;2023-04-29T20:26:15;4.77;;;3.83;;
7211;SDS011;3647;48.792;9.802;2023-04-29T20:28:42;5.33;;;4.53;;
7211;SDS011;3647;48.792;9.802;2023-04-29T20:31:10;5.20;;;3.80;;
7211;SDS011;3647;48.792;9.802;2023-04-29T20:33:37;4.97;;;4.40;;
7211;SDS011;3647;48.792;9.802;2023-04-29T20:36:04;6.50;;;4.83;;
7211;SDS011;3647;48.792;9.802;2023-04-29T20:38:31;6.60;;;4.47;;
7211;SDS011;3647;48.792;9.802;2023-04-29T20:40:59;6.13;;;5.00;;
7211;SDS011;3647;48.792;9.802;2023-04-29T20:43:26;8.27;;;4.93;;
7211;SDS011;3647;48.792;9.802;2023-04-29T20:45:53;4.43;;;3.67;;
7211;SDS011;3647;48.792;9.802;2023-04-29T20:48:23;6.13;;;4.03;;
7211;SDS011;3647;48.792;9.802;2023-04-29T20:50:51;7.10;;;4.80;;
7211;SDS011;3647;48.792;9.802;2023-04-29T20:53:18;7.10;;;5.23;;
7211;SDS011;3647;48.792;9.802;2023-04-29T20:55:45;13.97;;;9.33;;
7211;SDS011;3647;48.792;9.802;2023-04-29T20:58:11;5.67;;;4.93;;
7211;SDS011;3647;48.792;9.802;2023-04-29T21:00:40;5.70;;;4.87;;
7211;SDS011;3647;48.792;9.802;2023-04-29T21:03:07;4.80;;;4.30;;
7211;SDS011;3647;48.792;9.802;2023-04-29T21:05:35;6.70;;;4.83;;
7211;SDS011;3647;48.792;9.802;2023-04-29T21:08:02;5.73;;;4.60;;
7211;SDS011;3647;48.792;9.802;2023-04-29T21:10:30;6.27;;;4.77;;
7211;SDS011;3647;48.792;9.802;2023-04-29T21:12:56;7.00;;;4.63;;
7211;SDS011;3647;48.792;9.802;2023-04-29T21:15:23;5.30;;;4.43;;
7211;SDS011;3647;48.792;9.802;2023-04-29T21:17:50;8.37;;;5.37;;
7211;SDS011;3647;48.792;9.802;2023-04-29T21:20:17;6.73;;;4.90;;
